Hoegh Berlin — C6XQ4 — position and weather

sailwx.info

Track history (hours):
 
Tides and Currents Weather Stations Pressure Air Temp Water Temp Dewpoint Dewpoint Depression Visibility Wind Speed Wind Dir Waves Ship Positions

Hoegh Berlin

Last reported at 2016-Feb-01 00:15 UTC. Time now 2016-Feb-06 20:44 UTC.
Position N 40°22' W 073°03'.

Length 228 m; draft 8.3 m.

Type: Cargo ship. MMSI: 311019100.

Date/timePositionNaut miles runAvg speedWind from/ knotsBaromVisibWave heightAir tempDewpointWater temp
2016-Feb-01 00:15N 40°22' W 073°03'1216.1
2016-Jan-31 23:32N 40°22' W 073°18'2211.0
2016-Jan-31 21:32N 40°26' W 073°47'8 8.7
2016-Jan-31 20:33N 40°30' W 073°57'1111.1
2016-Jan-31 19:34N 40°39' W 074°05'3 3.2
2016-Jan-31 18:34N 40°41' W 074°08'1 0.8
2016-Jan-31 17:34N 40°42' W 074°09'0 0.0
2016-Jan-31 16:33N 40°42' W 074°09'0 0.0
2016-Jan-31 15:33N 40°42' W 074°09'0 0.0
2016-Jan-31 14:33N 40°42' W 074°09'0 0.0
2016-Jan-31 13:33N 40°42' W 074°09'0 0.0
2016-Jan-31 12:33N 40°42' W 074°09'0 0.0
2016-Jan-31 11:33N 40°42' W 074°09'0 0.0
2016-Jan-31 10:33N 40°42' W 074°09'1 0.9
2016-Jan-31 09:34N 40°41' W 074°08'1 0.9
2016-Jan-31 08:33N 40°42' W 074°09'0 0.0
2016-Jan-31 07:33N 40°42' W 074°09'0 0.0
2016-Jan-31 06:33N 40°42' W 074°09'0 0.0
2016-Jan-31 05:33N 40°42' W 074°09'0 0.0
2016-Jan-31 04:33N 40°42' W 074°09'0 0.0
2016-Jan-31 03:33N 40°42' W 074°09'0 0.0
2016-Jan-31 02:33N 40°42' W 074°09'0 0.0
2016-Jan-31 01:30N 40°42' W 074°09'0 0.1
2016-Jan-31 00:33N 40°42' W 074°09'3 3.3
2016-Jan-30 23:33N 40°39' W 074°08'7 7.3
2016-Jan-30 22:33N 40°33' W 074°02'1110.8
2016-Jan-30 21:33N 40°27' W 073°50'30 9.3
2016-Jan-30 18:17N 39°57' W 073°44'1216.2
2016-Jan-30 17:33N 39°46' W 073°44'1616.1
2016-Jan-30 16:32N 39°30' W 073°52'6613.2
2016-Jan-30 11:33N 38°46' W 074°54'9 9.1
2016-Jan-30 10:34N 38°50' W 075°05'1616.3
2016-Jan-30 09:34N 39°05' W 075°11'1615.7
2016-Jan-30 08:33N 39°18' W 075°23'1414.1
2016-Jan-30 07:33N 39°29' W 075°34'1211.7
2016-Jan-30 06:33N 39°41' W 075°31'9 9.4
2016-Jan-30 05:33N 39°49' W 075°24'9 9.1
2016-Jan-30 04:33N 39°52' W 075°13'5 4.4
2016-Jan-30 03:32N 39°54' W 075°08'0 0.0
2016-Jan-30 02:32N 39°54' W 075°08'0 0.0
2016-Jan-30 01:32N 39°54' W 075°08'0 0.0
2016-Jan-30 00:32N 39°54' W 075°08'0 0.0
2016-Jan-29 23:32N 39°54' W 075°08'0 0.0
2016-Jan-29 22:32N 39°54' W 075°08'0 0.0
2016-Jan-29 21:32N 39°54' W 075°08'0 0.0
2016-Jan-29 20:32N 39°54' W 075°08'0 0.0
2016-Jan-29 19:32N 39°54' W 075°08'0 0.0
2016-Jan-29 18:32N 39°54' W 075°08'0 0.0
2016-Jan-29 17:32N 39°54' W 075°08'0 0.0
2016-Jan-29 16:32N 39°54' W 075°08'0 0.0
2016-Jan-29 15:29N 39°54' W 075°08'0 0.0
2016-Jan-29 14:32N 39°54' W 075°08'0 0.0
2016-Jan-29 13:32N 39°54' W 075°08'0 0.0
2016-Jan-29 12:32N 39°54' W 075°08'1 0.8
2016-Jan-29 11:34N 39°53' W 075°08'6 5.8
2016-Jan-29 10:34N 39°51' W 075°15'1110.7
2016-Jan-29 09:33N 39°47' W 075°28'1211.8
2016-Jan-29 08:34N 39°36' W 075°34'6 6.3
2016-Jan-29 07:33N 39°33' W 075°41'7 6.6
2016-Jan-29 06:33N 39°32' W 075°49'8 8.2
2016-Jan-29 05:33N 39°28' W 075°59'1413.9
2016-Jan-29 04:33N 39°19' W 076°13'1211.8
2016-Jan-29 03:33N 39°09' W 076°21'1110.8
2016-Jan-29 02:30N 39°15' W 076°33'1 0.8
2016-Jan-29 01:18N 39°15' W 076°35'0 0.0
2016-Jan-29 00:34N 39°15' W 076°35'0 0.0
2016-Jan-28 14:30N 39°15' W 076°35'0 0.0
2016-Jan-28 13:33N 39°15' W 076°35'0 0.0
2016-Jan-28 12:30N 39°15' W 076°35'0 0.0
2016-Jan-28 11:27N 39°15' W 076°35'0 0.0
2016-Jan-28 10:33N 39°15' W 076°35'0 0.0
2016-Jan-28 09:30N 39°15' W 076°35'0 0.0
2016-Jan-28 08:30N 39°15' W 076°35'0 0.0
2016-Jan-28 07:24N 39°15' W 076°35'0 0.0
2016-Jan-28 06:27N 39°15' W 076°35'0 0.0
2016-Jan-28 05:33N 39°15' W 076°35'0 0.0
2016-Jan-28 04:30N 39°15' W 076°35'0 0.0
2016-Jan-27 19:06N 39°15' W 076°35'0 0.0
2016-Jan-27 11:15N 39°15' W 076°35'0 0.0
2016-Jan-27 08:16N 39°15' W 076°35'0 0.0
2016-Jan-27 05:30N 39°15' W 076°35'0 0.0
2016-Jan-27 04:30N 39°15' W 076°35'0 0.0
2016-Jan-27 03:33N 39°15' W 076°35'1 0.6
2016-Jan-27 02:33N 39°15' W 076°34'6 6.1
2016-Jan-27 01:33N 39°11' W 076°28'1312.5
2016-Jan-27 00:34N 38°60' W 076°23'1716.6
2016-Jan-26 23:33N 38°43' W 076°26'4016.3
2016-Jan-26 21:06N 38°04' W 076°13'  
2016-Jan-22 16:34N 26°17' W 079°24'1616.4
2016-Jan-22 15:34N 26°01' W 079°28'1716.8
2016-Jan-22 14:32N 25°44' W 079°31'  
Track history (hours):
 
Tides and Currents Weather Stations Pressure Air Temp Water Temp Dewpoint Dewpoint Depression Visibility Wind Speed Wind Dir Waves Ship Positions

Hoegh Berlin

Last reported at 2016-Feb-01 00:15 UTC. Time now 2016-Feb-06 20:44 UTC.
Position N 40°22' W 073°03'.

Length 228 m; draft 8.3 m.

Type: Cargo ship. MMSI: 311019100.

Date/timePositionNaut miles runAvg speedWind from/ knotsBaromVisibWave heightAir tempDewpointWater temp
2016-Feb-01 00:15N 40°22' W 073°03'1216.1
2016-Jan-31 23:32N 40°22' W 073°18'2211.0
2016-Jan-31 21:32N 40°26' W 073°47'8 8.7
2016-Jan-31 20:33N 40°30' W 073°57'1111.1
2016-Jan-31 19:34N 40°39' W 074°05'3 3.2
2016-Jan-31 18:34N 40°41' W 074°08'1 0.8
2016-Jan-31 17:34N 40°42' W 074°09'0 0.0
2016-Jan-31 16:33N 40°42' W 074°09'0 0.0
2016-Jan-31 15:33N 40°42' W 074°09'0 0.0
2016-Jan-31 14:33N 40°42' W 074°09'0 0.0
2016-Jan-31 13:33N 40°42' W 074°09'0 0.0
2016-Jan-31 12:33N 40°42' W 074°09'0 0.0
2016-Jan-31 11:33N 40°42' W 074°09'0 0.0
2016-Jan-31 10:33N 40°42' W 074°09'1 0.9
2016-Jan-31 09:34N 40°41' W 074°08'1 0.9
2016-Jan-31 08:33N 40°42' W 074°09'0 0.0
2016-Jan-31 07:33N 40°42' W 074°09'0 0.0
2016-Jan-31 06:33N 40°42' W 074°09'0 0.0
2016-Jan-31 05:33N 40°42' W 074°09'0 0.0
2016-Jan-31 04:33N 40°42' W 074°09'0 0.0
2016-Jan-31 03:33N 40°42' W 074°09'0 0.0
2016-Jan-31 02:33N 40°42' W 074°09'0 0.0
2016-Jan-31 01:30N 40°42' W 074°09'0 0.1
2016-Jan-31 00:33N 40°42' W 074°09'3 3.3
2016-Jan-30 23:33N 40°39' W 074°08'7 7.3
2016-Jan-30 22:33N 40°33' W 074°02'1110.8
2016-Jan-30 21:33N 40°27' W 073°50'30 9.3
2016-Jan-30 18:17N 39°57' W 073°44'1216.2
2016-Jan-30 17:33N 39°46' W 073°44'1616.1
2016-Jan-30 16:32N 39°30' W 073°52'6613.2
2016-Jan-30 11:33N 38°46' W 074°54'9 9.1
2016-Jan-30 10:34N 38°50' W 075°05'1616.3
2016-Jan-30 09:34N 39°05' W 075°11'1615.7
2016-Jan-30 08:33N 39°18' W 075°23'1414.1
2016-Jan-30 07:33N 39°29' W 075°34'1211.7
2016-Jan-30 06:33N 39°41' W 075°31'9 9.4
2016-Jan-30 05:33N 39°49' W 075°24'9 9.1
2016-Jan-30 04:33N 39°52' W 075°13'5 4.4
2016-Jan-30 03:32N 39°54' W 075°08'0 0.0
2016-Jan-30 02:32N 39°54' W 075°08'0 0.0
2016-Jan-30 01:32N 39°54' W 075°08'0 0.0
2016-Jan-30 00:32N 39°54' W 075°08'0 0.0
2016-Jan-29 23:32N 39°54' W 075°08'0 0.0
2016-Jan-29 22:32N 39°54' W 075°08'0 0.0
2016-Jan-29 21:32N 39°54' W 075°08'0 0.0
2016-Jan-29 20:32N 39°54' W 075°08'0 0.0
2016-Jan-29 19:32N 39°54' W 075°08'0 0.0
2016-Jan-29 18:32N 39°54' W 075°08'0 0.0
2016-Jan-29 17:32N 39°54' W 075°08'0 0.0
2016-Jan-29 16:32N 39°54' W 075°08'0 0.0
2016-Jan-29 15:29N 39°54' W 075°08'0 0.0
2016-Jan-29 14:32N 39°54' W 075°08'0 0.0
2016-Jan-29 13:32N 39°54' W 075°08'0 0.0
2016-Jan-29 12:32N 39°54' W 075°08'1 0.8
2016-Jan-29 11:34N 39°53' W 075°08'6 5.8
2016-Jan-29 10:34N 39°51' W 075°15'1110.7
2016-Jan-29 09:33N 39°47' W 075°28'1211.8
2016-Jan-29 08:34N 39°36' W 075°34'6 6.3
2016-Jan-29 07:33N 39°33' W 075°41'7 6.6
2016-Jan-29 06:33N 39°32' W 075°49'8 8.2
2016-Jan-29 05:33N 39°28' W 075°59'1413.9
2016-Jan-29 04:33N 39°19' W 076°13'1211.8
2016-Jan-29 03:33N 39°09' W 076°21'1110.8
2016-Jan-29 02:30N 39°15' W 076°33'1 0.8
2016-Jan-29 01:18N 39°15' W 076°35'0 0.0
2016-Jan-29 00:34N 39°15' W 076°35'0 0.0
2016-Jan-28 14:30N 39°15' W 076°35'0 0.0
2016-Jan-28 13:33N 39°15' W 076°35'0 0.0
2016-Jan-28 12:30N 39°15' W 076°35'0 0.0
2016-Jan-28 11:27N 39°15' W 076°35'0 0.0
2016-Jan-28 10:33N 39°15' W 076°35'0 0.0
2016-Jan-28 09:30N 39°15' W 076°35'0 0.0
2016-Jan-28 08:30N 39°15' W 076°35'0 0.0
2016-Jan-28 07:24N 39°15' W 076°35'0 0.0
2016-Jan-28 06:27N 39°15' W 076°35'0 0.0
2016-Jan-28 05:33N 39°15' W 076°35'0 0.0
2016-Jan-28 04:30N 39°15' W 076°35'0 0.0
2016-Jan-27 19:06N 39°15' W 076°35'0 0.0
2016-Jan-27 11:15N 39°15' W 076°35'0 0.0
2016-Jan-27 08:16N 39°15' W 076°35'0 0.0
2016-Jan-27 05:30N 39°15' W 076°35'0 0.0
2016-Jan-27 04:30N 39°15' W 076°35'0 0.0
2016-Jan-27 03:33N 39°15' W 076°35'1 0.6
2016-Jan-27 02:33N 39°15' W 076°34'6 6.1
2016-Jan-27 01:33N 39°11' W 076°28'1312.5
2016-Jan-27 00:34N 38°60' W 076°23'1716.6
2016-Jan-26 23:33N 38°43' W 076°26'4016.3
2016-Jan-26 21:06N 38°04' W 076°13'  
2016-Jan-22 16:34N 26°17' W 079°24'1616.4
2016-Jan-22 15:34N 26°01' W 079°28'1716.8
2016-Jan-22 14:32N 25°44' W 079°31'  

Dump ship's entire track history